sensor_id;sensor_type;location;lat;lon;timestamp;temperature;humidity
40151;DHT22;25866;52.420;10.640;2023-06-26T00:01:55;19.90;99.90
40151;DHT22;25866;52.420;10.640;2023-06-26T00:04:21;19.90;99.90
40151;DHT22;25866;52.420;10.640;2023-06-26T00:06:49;19.90;99.90
40151;DHT22;25866;52.420;10.640;2023-06-26T00:09:15;19.90;99.90
40151;DHT22;25866;52.420;10.640;2023-06-26T00:11:41;19.90;99.90
40151;DHT22;25866;52.420;10.640;2023-06-26T00:14:07;19.80;99.90
40151;DHT22;25866;52.420;10.640;2023-06-26T00:16:32;19.80;99.90
40151;DHT22;25866;52.420;10.640;2023-06-26T00:18:58;19.80;99.90
40151;DHT22;25866;52.420;10.640;2023-06-26T00:21:26;19.70;99.90
40151;DHT22;25866;52.420;10.640;2023-06-26T00:23:52;19.70;99.90
40151;DHT22;25866;52.420;10.640;2023-06-26T00:26:18;19.60;99.90
40151;DHT22;25866;52.420;10.640;2023-06-26T00:28:44;19.60;99.90
40151;DHT22;25866;52.420;10.640;2023-06-26T00:31:10;19.50;99.90
40151;DHT22;25866;52.420;10.640;2023-06-26T00:33:36;19.40;99.90
40151;DHT22;25866;52.420;10.640;2023-06-26T00:36:02;19.40;99.90
40151;DHT22;25866;52.420;10.640;2023-06-26T00:38:29;19.30;99.90
40151;DHT22;25866;52.420;10.640;2023-06-26T00:40:57;19.20;99.90
40151;DHT22;25866;52.420;10.640;2023-06-26T00:43:23;19.20;99.90
40151;DHT22;25866;52.420;10.640;2023-06-26T00:45:49;19.20;99.90
40151;DHT22;25866;52.420;10.640;2023-06-26T00:48:15;19.20;99.90
40151;DHT22;25866;52.420;10.640;2023-06-26T00:50:41;19.10;99.90
40151;DHT22;25866;52.420;10.640;2023-06-26T00:53:09;19.00;99.90
40151;DHT22;25866;52.420;10.640;2023-06-26T00:55:36;19.00;99.90
40151;DHT22;25866;52.420;10.640;2023-06-26T00:58:04;19.00;99.90
40151;DHT22;25866;52.420;10.640;2023-06-26T01:00:30;18.90;99.90
40151;DHT22;25866;52.420;10.640;2023-06-26T01:02:56;18.80;99.90
40151;DHT22;25866;52.420;10.640;2023-06-26T01:05:26;18.80;99.90
40151;DHT22;25866;52.420;10.640;2023-06-26T01:07:52;18.90;99.90
40151;DHT22;25866;52.420;10.640;2023-06-26T01:10:21;18.90;99.90
40151;DHT22;25866;52.420;10.640;2023-06-26T01:12:47;18.90;99.90
40151;DHT22;25866;52.420;10.640;2023-06-26T01:15:12;18.80;99.90
40151;DHT22;25866;52.420;10.640;2023-06-26T01:17:41;18.90;99.90
40151;DHT22;25866;52.420;10.640;2023-06-26T01:20:13;18.90;99.90
40151;DHT22;25866;52.420;10.640;2023-06-26T01:27:48;18.80;99.90
40151;DHT22;25866;52.420;10.640;2023-06-26T01:30:22;18.70;99.90
40151;DHT22;25866;52.420;10.640;2023-06-26T01:32:49;18.70;99.90
40151;DHT22;25866;52.420;10.640;2023-06-26T01:35:15;18.60;99.90
40151;DHT22;25866;52.420;10.640;2023-06-26T01:37:41;18.60;99.90
40151;DHT22;25866;52.420;10.640;2023-06-26T01:40:10;18.70;99.90
40151;DHT22;25866;52.420;10.640;2023-06-26T01:42:38;18.60;99.90
40151;DHT22;25866;52.420;10.640;2023-06-26T01:45:16;18.60;99.90
40151;DHT22;25866;52.420;10.640;2023-06-26T01:47:48;18.50;99.90
40151;DHT22;25866;52.420;10.640;2023-06-26T01:50:18;18.50;99.90
40151;DHT22;25866;52.420;10.640;2023-06-26T01:53:11;18.50;99.90
40151;DHT22;25866;52.420;10.640;2023-06-26T01:55:51;18.50;99.90
40151;DHT22;25866;52.420;10.640;2023-06-26T01:58:21;18.50;99.90
40151;DHT22;25866;52.420;10.640;2023-06-26T02:00:51;18.50;99.90
40151;DHT22;25866;52.420;10.640;2023-06-26T02:03:17;18.50;99.90
40151;DHT22;25866;52.420;10.640;2023-06-26T02:05:43;18.50;99.90
40151;DHT22;25866;52.420;10.640;2023-06-26T02:08:10;18.50;99.90
40151;DHT22;25866;52.420;10.640;2023-06-26T02:10:36;18.60;99.90
40151;DHT22;25866;52.420;10.640;2023-06-26T02:13:01;18.60;99.90
40151;DHT22;25866;52.420;10.640;2023-06-26T02:15:27;18.60;99.90
40151;DHT22;25866;52.420;10.640;2023-06-26T02:17:53;18.50;99.90
40151;DHT22;25866;52.420;10.640;2023-06-26T02:20:18;18.50;99.90
40151;DHT22;25866;52.420;10.640;2023-06-26T02:22:44;18.50;99.90
40151;DHT22;25866;52.420;10.640;2023-06-26T02:25:10;18.40;99.90
40151;DHT22;25866;52.420;10.640;2023-06-26T02:27:38;18.50;99.90
40151;DHT22;25866;52.420;10.640;2023-06-26T02:30:04;18.50;99.90
40151;DHT22;25866;52.420;10.640;2023-06-26T02:32:30;18.50;99.90
40151;DHT22;25866;52.420;10.640;2023-06-26T02:34:56;18.40;99.90
40151;DHT22;25866;52.420;10.640;2023-06-26T02:37:29;18.40;99.90
40151;DHT22;25866;52.420;10.640;2023-06-26T02:39:54;18.30;99.90
40151;DHT22;25866;52.420;10.640;2023-06-26T02:42:20;18.20;99.90
40151;DHT22;25866;52.420;10.640;2023-06-26T02:44:46;18.20;99.90
40151;DHT22;25866;52.420;10.640;2023-06-26T02:47:12;18.10;99.90
40151;DHT22;25866;52.420;10.640;2023-06-26T02:49:37;18.20;99.90
40151;DHT22;25866;52.420;10.640;2023-06-26T02:52:04;18.20;99.90
40151;DHT22;25866;52.420;10.640;2023-06-26T02:54:29;18.10;99.90
40151;DHT22;25866;52.420;10.640;2023-06-26T02:56:55;18.10;99.90
40151;DHT22;25866;52.420;10.640;2023-06-26T02:59:21;18.10;99.90
40151;DHT22;25866;52.420;10.640;2023-06-26T03:01:50;18.10;99.90
40151;DHT22;25866;52.420;10.640;2023-06-26T03:04:16;18.10;99.90
40151;DHT22;25866;52.420;10.640;2023-06-26T03:06:43;18.10;99.90
40151;DHT22;25866;52.420;10.640;2023-06-26T03:09:09;18.20;99.90
40151;DHT22;25866;52.420;10.640;2023-06-26T03:11:36;18.20;99.90
40151;DHT22;25866;52.420;10.640;2023-06-26T03:14:02;18.20;99.90
40151;DHT22;25866;52.420;10.640;2023-06-26T03:16:27;18.20;99.90
40151;DHT22;25866;52.420;10.640;2023-06-26T03:18:56;18.20;99.90
40151;DHT22;25866;52.420;10.640;2023-06-26T03:21:22;18.20;99.90
40151;DHT22;25866;52.420;10.640;2023-06-26T03:23:48;18.20;99.90
40151;DHT22;25866;52.420;10.640;2023-06-26T03:26:24;18.20;99.90
40151;DHT22;25866;52.420;10.640;2023-06-26T03:28:53;18.10;99.90
40151;DHT22;25866;52.420;10.640;2023-06-26T03:31:19;18.10;99.90
40151;DHT22;25866;52.420;10.640;2023-06-26T03:33:46;18.10;99.90
40151;DHT22;25866;52.420;10.640;2023-06-26T03:36:13;18.10;99.90
40151;DHT22;25866;52.420;10.640;2023-06-26T03:38:38;18.10;99.90
40151;DHT22;25866;52.420;10.640;2023-06-26T03:41:07;18.10;99.90
40151;DHT22;25866;52.420;10.640;2023-06-26T03:43:32;18.10;99.90
40151;DHT22;25866;52.420;10.640;2023-06-26T03:46:01;18.10;99.90
40151;DHT22;25866;52.420;10.640;2023-06-26T03:48:29;18.10;99.90
40151;DHT22;25866;52.420;10.640;2023-06-26T03:50:57;18.10;99.90
40151;DHT22;25866;52.420;10.640;2023-06-26T03:53:23;18.10;99.90
40151;DHT22;25866;52.420;10.640;2023-06-26T03:55:49;18.00;99.90
40151;DHT22;25866;52.420;10.640;2023-06-26T03:58:15;18.00;99.90
40151;DHT22;25866;52.420;10.640;2023-06-26T04:00:41;18.00;99.90
40151;DHT22;25866;52.420;10.640;2023-06-26T04:03:07;18.10;99.90
40151;DHT22;25866;52.420;10.640;2023-06-26T04:05:33;18.10;99.90
40151;DHT22;25866;52.420;10.640;2023-06-26T04:07:59;18.10;99.90
40151;DHT22;25866;52.420;10.640;2023-06-26T04:10:24;18.20;99.90
40151;DHT22;25866;52.420;10.640;2023-06-26T04:13:00;18.20;99.90
40151;DHT22;25866;52.420;10.640;2023-06-26T04:15:25;18.20;99.90
40151;DHT22;25866;52.420;10.640;2023-06-26T04:17:51;18.30;99.90
40151;DHT22;25866;52.420;10.640;2023-06-26T04:20:17;18.30;99.90
40151;DHT22;25866;52.420;10.640;2023-06-26T04:22:42;18.30;99.90
40151;DHT22;25866;52.420;10.640;2023-06-26T04:25:11;18.30;99.90
40151;DHT22;25866;52.420;10.640;2023-06-26T04:27:39;18.40;99.90
40151;DHT22;25866;52.420;10.640;2023-06-26T04:30:06;18.50;99.90
40151;DHT22;25866;52.420;10.640;2023-06-26T04:32:33;18.50;99.90
40151;DHT22;25866;52.420;10.640;2023-06-26T04:34:59;18.60;99.90
40151;DHT22;25866;52.420;10.640;2023-06-26T04:37:26;18.70;99.90
40151;DHT22;25866;52.420;10.640;2023-06-26T04:39:51;18.80;99.90
40151;DHT22;25866;52.420;10.640;2023-06-26T04:42:19;18.90;99.90
40151;DHT22;25866;52.420;10.640;2023-06-26T04:44:47;19.10;99.90
40151;DHT22;25866;52.420;10.640;2023-06-26T04:47:12;19.20;99.90
40151;DHT22;25866;52.420;10.640;2023-06-26T04:49:40;19.40;99.90
40151;DHT22;25866;52.420;10.640;2023-06-26T04:52:12;19.60;99.90
40151;DHT22;25866;52.420;10.640;2023-06-26T04:54:42;19.80;99.90
40151;DHT22;25866;52.420;10.640;2023-06-26T04:57:08;19.90;99.90
40151;DHT22;25866;52.420;10.640;2023-06-26T04:59:37;20.10;99.90
40151;DHT22;25866;52.420;10.640;2023-06-26T05:02:04;20.20;99.90
40151;DHT22;25866;52.420;10.640;2023-06-26T05:04:33;20.30;99.90
40151;DHT22;25866;52.420;10.640;2023-06-26T05:06:59;20.40;99.90
40151;DHT22;25866;52.420;10.640;2023-06-26T05:09:25;20.50;99.90
40151;DHT22;25866;52.420;10.640;2023-06-26T05:11:51;20.50;99.90
40151;DHT22;25866;52.420;10.640;2023-06-26T05:14:16;20.60;99.90
40151;DHT22;25866;52.420;10.640;2023-06-26T05:16:42;20.60;99.90
40151;DHT22;25866;52.420;10.640;2023-06-26T05:19:08;20.60;99.90
40151;DHT22;25866;52.420;10.640;2023-06-26T05:21:34;20.60;99.90
40151;DHT22;25866;52.420;10.640;2023-06-26T05:24:05;20.60;99.90
40151;DHT22;25866;52.420;10.640;2023-06-26T05:26:31;20.70;99.90
40151;DHT22;25866;52.420;10.640;2023-06-26T05:28:58;20.80;99.90
40151;DHT22;25866;52.420;10.640;2023-06-26T05:31:24;20.90;99.90
40151;DHT22;25866;52.420;10.640;2023-06-26T05:33:55;20.90;99.90
40151;DHT22;25866;52.420;10.640;2023-06-26T05:36:23;21.00;99.90
40151;DHT22;25866;52.420;10.640;2023-06-26T05:38:49;21.10;99.90
40151;DHT22;25866;52.420;10.640;2023-06-26T05:41:19;21.10;99.90
40151;DHT22;25866;52.420;10.640;2023-06-26T05:43:44;21.20;99.90
40151;DHT22;25866;52.420;10.640;2023-06-26T05:46:10;21.30;99.90
40151;DHT22;25866;52.420;10.640;2023-06-26T05:48:36;21.30;99.90
40151;DHT22;25866;52.420;10.640;2023-06-26T05:51:03;21.40;99.90
40151;DHT22;25866;52.420;10.640;2023-06-26T05:53:29;21.40;99.90
40151;DHT22;25866;52.420;10.640;2023-06-26T05:55:56;21.40;99.90
40151;DHT22;25866;52.420;10.640;2023-06-26T05:58:26;21.50;99.90
40151;DHT22;25866;52.420;10.640;2023-06-26T06:00:53;21.50;99.90
40151;DHT22;25866;52.420;10.640;2023-06-26T06:03:20;21.60;99.90
40151;DHT22;25866;52.420;10.640;2023-06-26T06:05:48;21.70;99.90
40151;DHT22;25866;52.420;10.640;2023-06-26T06:08:14;21.70;99.90
40151;DHT22;25866;52.420;10.640;2023-06-26T06:10:40;21.80;99.90
40151;DHT22;25866;52.420;10.640;2023-06-26T06:13:06;21.90;99.90
40151;DHT22;25866;52.420;10.640;2023-06-26T06:15:32;21.90;99.90
40151;DHT22;25866;52.420;10.640;2023-06-26T06:17:57;22.10;99.90
40151;DHT22;25866;52.420;10.640;2023-06-26T06:20:23;22.20;99.90
40151;DHT22;25866;52.420;10.640;2023-06-26T06:22:49;22.30;99.90
40151;DHT22;25866;52.420;10.640;2023-06-26T06:25:15;22.40;99.90
40151;DHT22;25866;52.420;10.640;2023-06-26T06:27:41;22.40;99.90
40151;DHT22;25866;52.420;10.640;2023-06-26T06:30:10;22.50;99.90
40151;DHT22;25866;52.420;10.640;2023-06-26T06:32:36;22.60;99.90
40151;DHT22;25866;52.420;10.640;2023-06-26T06:35:01;22.70;99.90
40151;DHT22;25866;52.420;10.640;2023-06-26T06:37:34;22.80;99.90
40151;DHT22;25866;52.420;10.640;2023-06-26T06:39:59;22.90;99.90
40151;DHT22;25866;52.420;10.640;2023-06-26T06:42:25;23.00;99.90
40151;DHT22;25866;52.420;10.640;2023-06-26T06:44:59;23.10;99.90
40151;DHT22;25866;52.420;10.640;2023-06-26T06:47:25;23.20;99.90
40151;DHT22;25866;52.420;10.640;2023-06-26T06:49:51;23.30;99.90
40151;DHT22;25866;52.420;10.640;2023-06-26T06:52:16;23.30;99.90
40151;DHT22;25866;52.420;10.640;2023-06-26T06:54:54;23.40;99.90
40151;DHT22;25866;52.420;10.640;2023-06-26T06:57:20;23.50;99.90
40151;DHT22;25866;52.420;10.640;2023-06-26T06:59:46;23.60;99.90
40151;DHT22;25866;52.420;10.640;2023-06-26T07:02:13;23.80;99.90
40151;DHT22;25866;52.420;10.640;2023-06-26T07:04:39;24.10;99.90
40151;DHT22;25866;52.420;10.640;2023-06-26T07:07:04;24.20;99.90
40151;DHT22;25866;52.420;10.640;2023-06-26T07:09:30;24.30;99.90
40151;DHT22;25866;52.420;10.640;2023-06-26T07:11:56;24.50;99.90
40151;DHT22;25866;52.420;10.640;2023-06-26T07:14:23;24.70;99.90
40151;DHT22;25866;52.420;10.640;2023-06-26T07:16:48;24.70;99.90
40151;DHT22;25866;52.420;10.640;2023-06-26T07:19:14;24.80;99.90
40151;DHT22;25866;52.420;10.640;2023-06-26T07:21:40;25.10;99.90
40151;DHT22;25866;52.420;10.640;2023-06-26T07:24:07;25.30;99.90
40151;DHT22;25866;52.420;10.640;2023-06-26T07:26:33;25.40;99.90
40151;DHT22;25866;52.420;10.640;2023-06-26T07:28:58;25.40;99.90
40151;DHT22;25866;52.420;10.640;2023-06-26T07:31:26;25.60;99.90
40151;DHT22;25866;52.420;10.640;2023-06-26T07:33:53;25.70;99.90
40151;DHT22;25866;52.420;10.640;2023-06-26T07:36:20;25.80;99.90
40151;DHT22;25866;52.420;10.640;2023-06-26T07:38:45;25.70;99.90
40151;DHT22;25866;52.420;10.640;2023-06-26T07:41:11;25.70;99.90
40151;DHT22;25866;52.420;10.640;2023-06-26T07:43:41;25.60;99.90
40151;DHT22;25866;52.420;10.640;2023-06-26T07:46:07;25.60;99.90
40151;DHT22;25866;52.420;10.640;2023-06-26T07:48:32;25.60;99.90
40151;DHT22;25866;52.420;10.640;2023-06-26T07:50:58;25.70;99.90
40151;DHT22;25866;52.420;10.640;2023-06-26T07:53:25;25.80;99.90
40151;DHT22;25866;52.420;10.640;2023-06-26T07:55:51;25.80;99.90
40151;DHT22;25866;52.420;10.640;2023-06-26T07:58:16;25.90;99.90
40151;DHT22;25866;52.420;10.640;2023-06-26T08:00:42;26.00;99.90
40151;DHT22;25866;52.420;10.640;2023-06-26T08:03:08;26.10;99.90
40151;DHT22;25866;52.420;10.640;2023-06-26T08:05:34;26.30;99.90
40151;DHT22;25866;52.420;10.640;2023-06-26T08:08:00;26.40;99.90
40151;DHT22;25866;52.420;10.640;2023-06-26T08:10:28;26.50;99.90
40151;DHT22;25866;52.420;10.640;2023-06-26T08:12:54;26.50;99.90
40151;DHT22;25866;52.420;10.640;2023-06-26T08:15:20;26.70;99.90
40151;DHT22;25866;52.420;10.640;2023-06-26T08:17:49;26.70;99.90
40151;DHT22;25866;52.420;10.640;2023-06-26T08:20:16;26.80;99.90
40151;DHT22;25866;52.420;10.640;2023-06-26T08:22:41;26.80;99.90
40151;DHT22;25866;52.420;10.640;2023-06-26T08:25:07;26.80;99.90
40151;DHT22;25866;52.420;10.640;2023-06-26T08:27:42;27.00;99.90
40151;DHT22;25866;52.420;10.640;2023-06-26T08:30:08;27.20;99.90
40151;DHT22;25866;52.420;10.640;2023-06-26T08:32:34;27.30;99.30
40151;DHT22;25866;52.420;10.640;2023-06-26T08:35:06;27.50;99.90
40151;DHT22;25866;52.420;10.640;2023-06-26T08:37:32;27.50;97.90
40151;DHT22;25866;52.420;10.640;2023-06-26T08:40:01;27.40;98.70
40151;DHT22;25866;52.420;10.640;2023-06-26T08:42:27;27.30;99.10
40151;DHT22;25866;52.420;10.640;2023-06-26T08:44:55;27.60;99.70
40151;DHT22;25866;52.420;10.640;2023-06-26T08:47:21;27.80;99.10
40151;DHT22;25866;52.420;10.640;2023-06-26T08:50:10;27.90;99.10
40151;DHT22;25866;52.420;10.640;2023-06-26T08:52:48;27.90;99.50
40151;DHT22;25866;52.420;10.640;2023-06-26T08:55:23;27.70;98.70
40151;DHT22;25866;52.420;10.640;2023-06-26T08:57:54;27.60;99.90
40151;DHT22;25866;52.420;10.640;2023-06-26T09:00:20;27.60;99.70
40151;DHT22;25866;52.420;10.640;2023-06-26T09:02:46;27.60;99.10
40151;DHT22;25866;52.420;10.640;2023-06-26T09:05:15;27.60;98.10
40151;DHT22;25866;52.420;10.640;2023-06-26T09:07:41;27.50;98.10
40151;DHT22;25866;52.420;10.640;2023-06-26T09:10:09;27.50;99.60
40151;DHT22;25866;52.420;10.640;2023-06-26T09:12:39;27.60;99.90
40151;DHT22;25866;52.420;10.640;2023-06-26T09:15:08;27.70;98.90
40151;DHT22;25866;52.420;10.640;2023-06-26T09:17:38;27.90;99.90
40151;DHT22;25866;52.420;10.640;2023-06-26T09:20:05;28.00;99.90
40151;DHT22;25866;52.420;10.640;2023-06-26T09:22:37;28.00;98.10
40151;DHT22;25866;52.420;10.640;2023-06-26T09:25:06;28.20;99.90
40151;DHT22;25866;52.420;10.640;2023-06-26T09:27:32;28.00;99.90
40151;DHT22;25866;52.420;10.640;2023-06-26T09:29:58;27.80;99.90
40151;DHT22;25866;52.420;10.640;2023-06-26T09:32:27;27.90;98.60
40151;DHT22;25866;52.420;10.640;2023-06-26T09:34:56;27.90;97.90
40151;DHT22;25866;52.420;10.640;2023-06-26T09:37:22;28.00;99.90
40151;DHT22;25866;52.420;10.640;2023-06-26T09:39:58;28.20;99.90
40151;DHT22;25866;52.420;10.640;2023-06-26T09:42:23;28.30;98.50
40151;DHT22;25866;52.420;10.640;2023-06-26T09:44:49;28.40;98.60
40151;DHT22;25866;52.420;10.640;2023-06-26T09:47:19;28.50;98.60
40151;DHT22;25866;52.420;10.640;2023-06-26T09:49:45;28.60;99.60
40151;DHT22;25866;52.420;10.640;2023-06-26T09:52:14;28.80;99.90
40151;DHT22;25866;52.420;10.640;2023-06-26T09:54:41;28.60;98.20
40151;DHT22;25866;52.420;10.640;2023-06-26T09:57:12;28.60;99.50
40151;DHT22;25866;52.420;10.640;2023-06-26T09:59:40;28.50;99.90
40151;DHT22;25866;52.420;10.640;2023-06-26T10:02:06;28.30;99.90
40151;DHT22;25866;52.420;10.640;2023-06-26T10:04:33;28.20;99.90
40151;DHT22;25866;52.420;10.640;2023-06-26T10:07:11;28.20;99.70
40151;DHT22;25866;52.420;10.640;2023-06-26T10:09:42;28.40;99.90
40151;DHT22;25866;52.420;10.640;2023-06-26T10:12:29;28.40;99.60
40151;DHT22;25866;52.420;10.640;2023-06-26T10:14:58;28.60;99.90
40151;DHT22;25866;52.420;10.640;2023-06-26T10:17:29;28.70;99.70
40151;DHT22;25866;52.420;10.640;2023-06-26T10:19:58;28.80;99.90
40151;DHT22;25866;52.420;10.640;2023-06-26T10:22:29;28.80;99.90
40151;DHT22;25866;52.420;10.640;2023-06-26T10:24:59;28.80;99.50
40151;DHT22;25866;52.420;10.640;2023-06-26T10:27:31;28.90;99.60
40151;DHT22;25866;52.420;10.640;2023-06-26T10:30:03;29.00;99.20
40151;DHT22;25866;52.420;10.640;2023-06-26T10:32:29;28.80;97.80
40151;DHT22;25866;52.420;10.640;2023-06-26T10:34:56;28.60;99.90
40151;DHT22;25866;52.420;10.640;2023-06-26T10:37:44;28.60;99.30
40151;DHT22;25866;52.420;10.640;2023-06-26T10:40:10;28.60;99.30
40151;DHT22;25866;52.420;10.640;2023-06-26T10:42:38;28.70;99.00
40151;DHT22;25866;52.420;10.640;2023-06-26T10:45:21;28.70;99.90
40151;DHT22;25866;52.420;10.640;2023-06-26T10:47:54;28.80;99.90
40151;DHT22;25866;52.420;10.640;2023-06-26T10:50:24;29.00;99.90
40151;DHT22;25866;52.420;10.640;2023-06-26T10:55:58;28.90;99.30
40151;DHT22;25866;52.420;10.640;2023-06-26T11:01:22;28.10;99.10
40151;DHT22;25866;52.420;10.640;2023-06-26T11:06:24;28.10;99.10
40151;DHT22;25866;52.420;10.640;2023-06-26T11:08:54;28.00;98.70
40151;DHT22;25866;52.420;10.640;2023-06-26T11:14:20;27.50;99.30
40151;DHT22;25866;52.420;10.640;2023-06-26T11:16:55;27.30;99.90
40151;DHT22;25866;52.420;10.640;2023-06-26T11:19:21;27.40;99.90
40151;DHT22;25866;52.420;10.640;2023-06-26T11:21:47;27.50;99.90
40151;DHT22;25866;52.420;10.640;2023-06-26T11:24:13;27.50;99.50
40151;DHT22;25866;52.420;10.640;2023-06-26T11:26:47;27.30;99.90
40151;DHT22;25866;52.420;10.640;2023-06-26T11:29:13;27.10;99.90
40151;DHT22;25866;52.420;10.640;2023-06-26T11:31:41;26.90;99.90
40151;DHT22;25866;52.420;10.640;2023-06-26T11:34:08;26.70;99.90
40151;DHT22;25866;52.420;10.640;2023-06-26T11:36:36;26.50;99.90
40151;DHT22;25866;52.420;10.640;2023-06-26T11:39:06;26.20;99.90
40151;DHT22;25866;52.420;10.640;2023-06-26T11:41:38;26.00;99.90
40151;DHT22;25866;52.420;10.640;2023-06-26T11:44:06;25.80;99.90
40151;DHT22;25866;52.420;10.640;2023-06-26T11:46:34;25.70;99.90
40151;DHT22;25866;52.420;10.640;2023-06-26T11:49:02;25.50;99.90
40151;DHT22;25866;52.420;10.640;2023-06-26T11:51:28;25.20;99.90
40151;DHT22;25866;52.420;10.640;2023-06-26T11:53:54;24.90;99.90
40151;DHT22;25866;52.420;10.640;2023-06-26T11:56:20;24.70;99.90
40151;DHT22;25866;52.420;10.640;2023-06-26T11:59:01;24.50;99.90
40151;DHT22;25866;52.420;10.640;2023-06-26T12:01:35;24.40;99.90
40151;DHT22;25866;52.420;10.640;2023-06-26T12:04:03;24.10;99.90
40151;DHT22;25866;52.420;10.640;2023-06-26T12:06:31;24.00;99.90
40151;DHT22;25866;52.420;10.640;2023-06-26T12:08:59;24.00;99.90
40151;DHT22;25866;52.420;10.640;2023-06-26T12:11:26;23.90;99.90
40151;DHT22;25866;52.420;10.640;2023-06-26T12:13:54;23.80;99.90
40151;DHT22;25866;52.420;10.640;2023-06-26T12:16:20;23.70;99.90
40151;DHT22;25866;52.420;10.640;2023-06-26T12:18:50;23.70;99.90
40151;DHT22;25866;52.420;10.640;2023-06-26T12:21:48;23.60;99.90
40151;DHT22;25866;52.420;10.640;2023-06-26T12:24:19;23.40;99.90
40151;DHT22;25866;52.420;10.640;2023-06-26T12:26:49;23.40;99.90
40151;DHT22;25866;52.420;10.640;2023-06-26T12:29:18;23.30;99.90
40151;DHT22;25866;52.420;10.640;2023-06-26T12:31:51;23.20;99.90
40151;DHT22;25866;52.420;10.640;2023-06-26T12:34:26;23.10;99.90
40151;DHT22;25866;52.420;10.640;2023-06-26T12:36:52;23.10;99.90
40151;DHT22;25866;52.420;10.640;2023-06-26T12:39:20;23.00;99.90
40151;DHT22;25866;52.420;10.640;2023-06-26T12:42:00;23.00;99.90
40151;DHT22;25866;52.420;10.640;2023-06-26T12:44:30;23.00;99.90
40151;DHT22;25866;52.420;10.640;2023-06-26T12:47:02;23.00;99.90
40151;DHT22;25866;52.420;10.640;2023-06-26T12:49:35;23.00;99.90
40151;DHT22;25866;52.420;10.640;2023-06-26T12:52:03;23.10;99.90
40151;DHT22;25866;52.420;10.640;2023-06-26T12:54:30;23.10;99.90
40151;DHT22;25866;52.420;10.640;2023-06-26T12:56:56;23.20;99.90
40151;DHT22;25866;52.420;10.640;2023-06-26T12:59:21;23.40;99.90
40151;DHT22;25866;52.420;10.640;2023-06-26T13:01:47;23.60;99.90
40151;DHT22;25866;52.420;10.640;2023-06-26T13:04:13;23.90;99.90
40151;DHT22;25866;52.420;10.640;2023-06-26T13:06:39;24.10;99.90
40151;DHT22;25866;52.420;10.640;2023-06-26T13:09:05;24.10;99.90
40151;DHT22;25866;52.420;10.640;2023-06-26T13:11:31;24.00;99.90
40151;DHT22;25866;52.420;10.640;2023-06-26T13:13:58;23.90;99.90
40151;DHT22;25866;52.420;10.640;2023-06-26T13:16:24;23.80;99.90
40151;DHT22;25866;52.420;10.640;2023-06-26T13:18:51;23.80;99.90
40151;DHT22;25866;52.420;10.640;2023-06-26T13:21:17;23.70;99.90
40151;DHT22;25866;52.420;10.640;2023-06-26T13:23:44;23.50;99.90
40151;DHT22;25866;52.420;10.640;2023-06-26T13:26:10;23.50;99.90
40151;DHT22;25866;52.420;10.640;2023-06-26T13:28:43;23.40;99.90
40151;DHT22;25866;52.420;10.640;2023-06-26T13:31:09;23.50;99.90
40151;DHT22;25866;52.420;10.640;2023-06-26T13:33:35;23.70;99.90
40151;DHT22;25866;52.420;10.640;2023-06-26T13:36:00;24.10;99.90
40151;DHT22;25866;52.420;10.640;2023-06-26T13:38:33;24.50;99.90
40151;DHT22;25866;52.420;10.640;2023-06-26T13:41:00;24.80;99.90
40151;DHT22;25866;52.420;10.640;2023-06-26T13:43:27;25.00;99.90
40151;DHT22;25866;52.420;10.640;2023-06-26T13:45:53;25.20;99.90
40151;DHT22;25866;52.420;10.640;2023-06-26T13:48:23;25.10;99.90
40151;DHT22;25866;52.420;10.640;2023-06-26T13:50:50;24.80;99.90
40151;DHT22;25866;52.420;10.640;2023-06-26T13:53:16;24.70;99.90
40151;DHT22;25866;52.420;10.640;2023-06-26T13:55:42;24.50;99.90
40151;DHT22;25866;52.420;10.640;2023-06-26T13:58:09;24.40;99.90
40151;DHT22;25866;52.420;10.640;2023-06-26T14:00:37;24.20;99.90
40151;DHT22;25866;52.420;10.640;2023-06-26T14:03:04;24.30;99.90
40151;DHT22;25866;52.420;10.640;2023-06-26T14:05:34;24.40;99.90
40151;DHT22;25866;52.420;10.640;2023-06-26T14:08:02;24.50;99.90
40151;DHT22;25866;52.420;10.640;2023-06-26T14:10:29;24.60;99.90
40151;DHT22;25866;52.420;10.640;2023-06-26T14:12:55;24.70;99.90
40151;DHT22;25866;52.420;10.640;2023-06-26T14:15:21;24.70;99.90
40151;DHT22;25866;52.420;10.640;2023-06-26T14:17:46;24.60;99.90
40151;DHT22;25866;52.420;10.640;2023-06-26T14:20:17;24.50;99.90
40151;DHT22;25866;52.420;10.640;2023-06-26T14:22:45;24.50;99.90
40151;DHT22;25866;52.420;10.640;2023-06-26T14:25:11;24.50;99.90
40151;DHT22;25866;52.420;10.640;2023-06-26T14:27:38;24.50;99.90
40151;DHT22;25866;52.420;10.640;2023-06-26T14:30:06;24.50;99.90
40151;DHT22;25866;52.420;10.640;2023-06-26T14:32:35;24.60;99.90
40151;DHT22;25866;52.420;10.640;2023-06-26T14:35:02;24.50;99.90
40151;DHT22;25866;52.420;10.640;2023-06-26T14:37:30;24.40;99.90
40151;DHT22;25866;52.420;10.640;2023-06-26T14:39:56;24.30;99.90
40151;DHT22;25866;52.420;10.640;2023-06-26T14:42:23;24.20;99.90
40151;DHT22;25866;52.420;10.640;2023-06-26T14:44:49;24.20;99.90
40151;DHT22;25866;52.420;10.640;2023-06-26T14:47:19;24.30;99.90
40151;DHT22;25866;52.420;10.640;2023-06-26T14:49:46;24.30;99.90
40151;DHT22;25866;52.420;10.640;2023-06-26T14:52:12;24.40;99.90
40151;DHT22;25866;52.420;10.640;2023-06-26T14:54:37;24.60;99.90
40151;DHT22;25866;52.420;10.640;2023-06-26T14:57:08;24.70;99.90
40151;DHT22;25866;52.420;10.640;2023-06-26T14:59:35;24.80;99.90
40151;DHT22;25866;52.420;10.640;2023-06-26T15:02:01;24.60;99.90
40151;DHT22;25866;52.420;10.640;2023-06-26T15:04:27;24.70;99.90
40151;DHT22;25866;52.420;10.640;2023-06-26T15:06:53;24.70;99.90
40151;DHT22;25866;52.420;10.640;2023-06-26T15:09:22;24.60;99.90
40151;DHT22;25866;52.420;10.640;2023-06-26T15:11:49;24.50;99.90
40151;DHT22;25866;52.420;10.640;2023-06-26T15:14:14;24.50;99.70
40151;DHT22;25866;52.420;10.640;2023-06-26T15:16:40;24.80;99.90
40151;DHT22;25866;52.420;10.640;2023-06-26T15:19:06;25.00;98.40
40151;DHT22;25866;52.420;10.640;2023-06-26T15:21:32;25.10;97.00
40151;DHT22;25866;52.420;10.640;2023-06-26T15:23:57;25.10;97.80
40151;DHT22;25866;52.420;10.640;2023-06-26T15:26:23;25.20;96.70
40151;DHT22;25866;52.420;10.640;2023-06-26T15:28:49;25.40;97.20
40151;DHT22;25866;52.420;10.640;2023-06-26T15:31:17;25.50;97.10
40151;DHT22;25866;52.420;10.640;2023-06-26T15:33:43;25.40;96.10
40151;DHT22;25866;52.420;10.640;2023-06-26T15:36:08;25.30;95.20